Milwaukee, Wisconsin
Traffic Map
Current Weather Conditions
Milwaukee, Wisconsin
Overcast
Overcast
27°
Feels Like: 27°
Wind Chill: 27° Ceiling: 2300
Heat Index: 27° Visibility: 10mi
Dew Point: 17° Wind: 0mph
Humidity: 66% Direction: ° ()
Pressure: 30.25in Gusts: 0mph
Raw Report DataKMKE 280552Z 00000KT 10SM OVC023 M03/M08 A3025 RMK AO2 SLP254 T10281083 11022 21028 410111033 50004
Traffic Incident Summary
Active as of:
Severity:
Category:
InformationThere was an issue retrieving the traffic information for this location. Please try a different location or try again shortly.
Advertisements
Track Severe Weather on mobile